This is the latest recevied weather packets stored in our database for station/object KC0CAU. If no packets are shown the sender has not sent any weather packets the latest 10 day(s).
| Time | Temp. | Humidity | Pressure | Rain* | Wind** | Luminosity | Snow |
|---|---|---|---|---|---|---|---|
| 1777691753 | 12.22° C | 43% | 1020.5 hPa | 0 mm | - | - | - |
| 1777690857 | 13.33° C | 41% | 1020.4 hPa | 0 mm | - | - | - |
| 1777689952 | 13.33° C | 40% | 1020.5 hPa | 0 mm | - | - | - |
| 1777689056 | 13.89° C | 39% | 1020.3 hPa | 0 mm | - | - | - |
| 1777688153 | 14.44° C | 38% | 1020.3 hPa | 0 mm | - | - | - |
| 1777687250 | 15° C | 37% | 1020.3 hPa | 0 mm | - | - | - |
| 1777686349 | 15° C | 36% | 1020.3 hPa | 0 mm | - | - | - |
| 1777685452 | 15.56° C | 36% | 1020.3 hPa | 0 mm | - | - | - |
| 1777684556 | 15.56° C | 35% | 1020.4 hPa | 0 mm | - | - | - |
| 1777683646 | 16.11° C | 34% | 1020.4 hPa | 0 mm | - | - | - |
| 1777682746 | 16.67° C | 33% | 1020.4 hPa | 0 mm | - | - | - |
| 1777681844 | 16.67° C | 34% | 1020.4 hPa | 0 mm | - | - | - |
| 1777680943 | 16.67° C | 34% | 1020.5 hPa | 0 mm | - | - | - |
| 1777680042 | 16.67° C | 34% | 1020.6 hPa | 0 mm | - | - | - |
| 1777679143 | 16.11° C | 36% | 1020.6 hPa | 0 mm | - | - | - |
| 1777678241 | 16.11° C | 36% | 1020.7 hPa | 0 mm | - | - | - |
| 1777677340 | 16.67° C | 35% | 1020.8 hPa | 0 mm | - | - | - |
| 1777676442 | 16.11° C | 36% | 1020.8 hPa | 0 mm | - | - | - |
| 1777675538 | 16.11° C | 35% | 1020.8 hPa | 0 mm | - | - | - |
| 1777674637 | 17.22° C | 34% | 1020.8 hPa | 0 mm | - | - | - |
| 1777673734 | 17.22° C | 35% | 1020.9 hPa | 0 mm | - | - | - |
| 1777672837 | 16.67° C | 37% | 1021.1 hPa | 0 mm | - | - | - |
| 1777671930 | 15.56° C | 40% | 1021.3 hPa | 0 mm | - | - | - |
| 1777671035 | 15° C | 39% | 1021.5 hPa | 0 mm | - | - | - |
| 1777670126 | 15° C | 39% | 1021.6 hPa | 0 mm | - | - | - |
* Rain latest hour (hover to see other rain measurements)
** Current wind speed in m/s (hover to see current wind gust speed)